createdAt,value
2018-06-09T00:00:20.550Z,12.47
2018-06-09T00:02:49.310Z,13.57
2018-06-09T00:05:18.022Z,12.00
2018-06-09T00:07:46.758Z,11.00
2018-06-09T00:10:15.497Z,13.67
2018-06-09T00:12:44.186Z,11.50
2018-06-09T00:15:12.881Z,13.70
2018-06-09T00:17:41.622Z,12.60
2018-06-09T00:20:10.318Z,12.50
2018-06-09T00:22:39.013Z,11.20
2018-06-09T00:25:07.962Z,11.90
2018-06-09T00:27:36.681Z,12.53
2018-06-09T00:30:05.403Z,14.23
2018-06-09T00:32:34.134Z,11.97
2018-06-09T00:35:02.867Z,12.13
2018-06-09T00:37:31.569Z,12.20
2018-06-09T00:40:00.325Z,14.83
2018-06-09T00:42:29.015Z,15.93
2018-06-09T00:44:57.730Z,12.70
2018-06-09T00:47:26.438Z,11.53
2018-06-09T00:49:55.171Z,12.50
2018-06-09T00:52:23.893Z,12.33
2018-06-09T00:54:52.622Z,11.70
2018-06-09T00:57:21.321Z,12.67
2018-06-09T00:59:50.015Z,11.90
2018-06-09T01:02:18.728Z,11.33
2018-06-09T01:04:47.439Z,12.40
2018-06-09T01:07:16.228Z,13.77
2018-06-09T01:09:45.023Z,11.40
2018-06-09T01:12:13.746Z,12.13
2018-06-09T01:14:42.606Z,11.83
2018-06-09T01:17:11.365Z,12.30
2018-06-09T01:19:40.091Z,11.97
2018-06-09T01:22:08.802Z,11.63
2018-06-09T01:24:37.550Z,11.13
2018-06-09T01:27:06.281Z,11.00
2018-06-09T01:29:35.002Z,10.53
2018-06-09T01:32:03.729Z,11.17
2018-06-09T01:34:32.441Z,11.97
2018-06-09T01:37:01.141Z,11.97
2018-06-09T01:39:29.864Z,11.80
2018-06-09T01:41:58.557Z,10.87
2018-06-09T01:44:27.257Z,13.43
2018-06-09T01:46:55.989Z,12.07
2018-06-09T01:49:24.669Z,11.90
2018-06-09T01:51:53.379Z,12.40
2018-06-09T01:54:22.098Z,11.83
2018-06-09T01:56:50.818Z,11.17
2018-06-09T01:59:19.562Z,10.80
2018-06-09T02:01:48.308Z,11.80
2018-06-09T02:04:17.032Z,12.93
2018-06-09T02:06:45.734Z,14.47
2018-06-09T02:09:14.461Z,14.53
2018-06-09T02:11:43.328Z,13.53
2018-06-09T02:14:12.042Z,12.70
2018-06-09T02:16:40.782Z,12.73
2018-06-09T02:19:09.468Z,13.47
2018-06-09T02:21:38.158Z,13.60
2018-06-09T02:24:06.912Z,12.43
2018-06-09T02:26:35.636Z,13.47
2018-06-09T02:29:04.354Z,14.20
2018-06-09T02:31:33.123Z,13.83
2018-06-09T02:34:01.825Z,14.43
2018-06-09T02:36:30.521Z,14.77
2018-06-09T02:38:59.270Z,15.23
2018-06-09T02:41:28.005Z,16.10
2018-06-09T02:43:56.794Z,13.10
2018-06-09T02:46:25.541Z,14.80
2018-06-09T02:48:54.261Z,18.00
2018-06-09T02:51:22.986Z,21.00
2018-06-09T02:53:51.746Z,17.57
2018-06-09T02:56:20.502Z,19.13
2018-06-09T02:58:49.202Z,16.90
2018-06-09T03:01:17.957Z,15.00
2018-06-09T03:03:46.686Z,16.20
2018-06-09T03:06:15.535Z,14.93
2018-06-09T03:08:44.281Z,13.87
2018-06-09T03:11:13.003Z,14.67
2018-06-09T03:13:41.725Z,17.60
2018-06-09T03:16:10.482Z,15.63
2018-06-09T03:18:39.201Z,15.57
2018-06-09T03:21:07.966Z,16.07
2018-06-09T03:23:36.725Z,16.43
2018-06-09T03:26:05.451Z,17.93
2018-06-09T03:28:34.270Z,16.60
2018-06-09T03:31:03.030Z,15.23
2018-06-09T03:33:31.792Z,16.73
2018-06-09T03:36:00.538Z,17.10
2018-06-09T03:38:29.331Z,22.20
2018-06-09T03:40:58.072Z,16.20
2018-06-09T03:43:26.926Z,16.77
2018-06-09T03:45:55.741Z,13.53
2018-06-09T03:48:24.492Z,16.50
2018-06-09T03:50:53.222Z,13.80
2018-06-09T03:53:21.993Z,12.43
2018-06-09T03:55:50.704Z,12.60
2018-06-09T03:58:19.498Z,12.13
2018-06-09T04:00:48.411Z,12.30
2018-06-09T04:03:17.117Z,11.60
2018-06-09T04:05:45.819Z,15.10
2018-06-09T04:08:14.550Z,12.70
2018-06-09T04:10:43.250Z,11.50
2018-06-09T04:13:11.967Z,13.37
2018-06-09T04:15:40.721Z,11.03
2018-06-09T04:18:09.444Z,13.53
2018-06-09T04:20:38.191Z,10.10
2018-06-09T04:23:06.969Z,10.30
2018-06-09T04:25:35.699Z,9.60
2018-06-09T04:28:04.419Z,10.10
2018-06-09T04:30:33.170Z,9.50
2018-06-09T04:33:01.878Z,15.10
2018-06-09T04:35:30.590Z,12.50
2018-06-09T04:37:59.347Z,14.17
2018-06-09T04:40:28.097Z,12.90
2018-06-09T04:42:56.839Z,9.40
2018-06-09T04:45:25.622Z,12.73
2018-06-09T04:47:54.347Z,11.30
2018-06-09T04:50:23.154Z,10.27
2018-06-09T04:52:51.896Z,9.03
2018-06-09T04:55:20.609Z,10.13
2018-06-09T04:57:49.346Z,9.27
2018-06-09T05:00:18.719Z,8.90
2018-06-09T05:02:47.442Z,8.70
2018-06-09T05:05:16.167Z,9.03
2018-06-09T05:07:44.929Z,8.93
2018-06-09T05:10:13.674Z,9.50
2018-06-09T05:12:42.390Z,7.17
2018-06-09T05:15:11.121Z,7.13
2018-06-09T05:17:39.838Z,6.23
2018-06-09T05:20:08.558Z,7.07
2018-06-09T05:22:37.320Z,7.97
2018-06-09T05:25:06.025Z,7.57
2018-06-09T05:27:34.735Z,6.83
2018-06-09T05:30:03.542Z,7.63
2018-06-09T05:32:32.259Z,8.60
2018-06-09T05:35:00.986Z,8.07
2018-06-09T05:37:29.763Z,7.40
2018-06-09T05:39:58.598Z,7.10
2018-06-09T05:42:27.376Z,8.67
2018-06-09T05:44:56.129Z,7.27
2018-06-09T05:47:24.882Z,7.57
2018-06-09T05:49:53.599Z,7.20
2018-06-09T05:52:22.356Z,6.43
2018-06-09T05:54:51.073Z,7.23
2018-06-09T05:57:19.804Z,6.43
2018-06-09T05:59:48.584Z,7.27
2018-06-09T06:02:17.348Z,6.17
2018-06-09T06:04:46.056Z,6.47
2018-06-09T06:07:14.840Z,5.77
2018-06-09T06:09:43.598Z,6.17
2018-06-09T06:12:12.320Z,6.27
2018-06-09T06:14:41.111Z,6.60
2018-06-09T06:17:09.863Z,6.00
2018-06-09T06:19:38.698Z,7.13
2018-06-09T06:22:07.619Z,7.20
2018-06-09T06:24:36.370Z,7.07
2018-06-09T06:27:05.087Z,7.67
2018-06-09T06:29:33.856Z,7.53
2018-06-09T06:32:02.654Z,7.27
2018-06-09T06:34:31.415Z,7.23
2018-06-09T06:37:00.214Z,6.80
2018-06-09T06:39:28.990Z,6.70
2018-06-09T06:41:57.793Z,7.60
2018-06-09T06:44:26.566Z,8.10
2018-06-09T06:46:55.299Z,6.30
2018-06-09T06:49:24.295Z,5.30
2018-06-09T06:51:53.050Z,5.97
2018-06-09T06:54:21.786Z,5.63
2018-06-09T06:56:50.608Z,6.45
2018-06-09T06:59:19.338Z,6.62
2018-06-09T07:01:48.051Z,7.67
2018-06-09T07:04:16.769Z,7.30
2018-06-09T07:06:45.507Z,5.83
2018-06-09T07:09:14.239Z,7.13
2018-06-09T07:11:43.012Z,8.70
2018-06-09T07:14:11.870Z,8.50
2018-06-09T07:16:40.622Z,7.70
2018-06-09T07:19:09.388Z,9.13
2018-06-09T07:21:38.183Z,7.67
2018-06-09T07:24:06.917Z,7.23
2018-06-09T07:26:36.914Z,8.73
2018-06-09T07:29:05.693Z,6.83
2018-06-09T07:31:34.459Z,8.13
2018-06-09T07:34:03.215Z,7.90
2018-06-09T07:36:32.058Z,7.13
2018-06-09T07:39:00.825Z,6.20
2018-06-09T07:41:29.590Z,7.60
2018-06-09T07:43:58.442Z,8.50
2018-06-09T07:46:27.181Z,6.07
2018-06-09T07:48:55.954Z,6.83
2018-06-09T07:51:24.708Z,7.73
2018-06-09T07:53:53.475Z,7.43
2018-06-09T07:56:22.236Z,8.60
2018-06-09T07:58:50.974Z,8.70
2018-06-09T08:01:19.739Z,6.47
2018-06-09T08:03:48.462Z,7.28
2018-06-09T08:06:17.257Z,7.65
2018-06-09T08:08:46.004Z,6.67
2018-06-09T08:11:14.726Z,8.53
2018-06-09T08:13:43.475Z,7.93
2018-06-09T08:16:12.285Z,8.00
2018-06-09T08:18:40.998Z,7.67
2018-06-09T08:21:09.717Z,6.17
2018-06-09T08:23:38.406Z,6.63
2018-06-09T08:26:07.089Z,7.40
2018-06-09T08:28:35.829Z,7.20
2018-06-09T08:31:04.517Z,6.63
2018-06-09T08:33:33.193Z,6.95
2018-06-09T08:36:02.006Z,6.30
2018-06-09T08:38:30.647Z,6.07
2018-06-09T08:40:59.371Z,5.93
2018-06-09T08:43:28.145Z,6.77
2018-06-09T08:45:56.886Z,6.37
2018-06-09T08:48:26.465Z,7.00
2018-06-09T08:50:55.200Z,7.20
2018-06-09T08:53:23.906Z,6.55
2018-06-09T08:55:52.630Z,6.30
2018-06-09T08:58:21.421Z,5.60
2018-06-09T09:00:50.157Z,5.23
2018-06-09T09:03:18.894Z,5.72
2018-06-09T09:05:47.632Z,6.35
2018-06-09T09:08:16.462Z,5.97
2018-06-09T09:10:45.202Z,6.30
2018-06-09T09:13:13.997Z,6.80
2018-06-09T09:15:42.758Z,7.50
2018-06-09T09:18:11.466Z,7.10
2018-06-09T09:20:40.214Z,6.90
2018-06-09T09:23:08.931Z,6.00
2018-06-09T09:25:37.624Z,6.42
2018-06-09T09:28:06.358Z,6.45
2018-06-09T09:30:35.046Z,6.63
2018-06-09T09:33:03.778Z,6.50
2018-06-09T09:35:32.513Z,6.60
2018-06-09T09:38:01.228Z,8.50
2018-06-09T09:40:29.994Z,6.47
2018-06-09T09:42:58.914Z,6.90
2018-06-09T09:45:27.630Z,7.37
2018-06-09T09:47:56.373Z,7.50
2018-06-09T09:50:25.201Z,6.80
2018-06-09T09:52:53.905Z,6.20
2018-06-09T09:55:22.737Z,5.37
2018-06-09T09:58:00.631Z,9.03
2018-06-09T10:00:34.547Z,7.47
2018-06-09T10:03:03.317Z,6.33
2018-06-09T10:05:32.152Z,7.37
2018-06-09T10:08:00.853Z,7.03
2018-06-09T10:10:29.608Z,6.80
2018-06-09T10:12:58.500Z,6.60
2018-06-09T10:15:27.305Z,7.07
2018-06-09T10:17:56.160Z,8.93
2018-06-09T10:20:24.978Z,6.27
2018-06-09T10:22:53.677Z,6.60
2018-06-09T10:25:22.447Z,7.40
2018-06-09T10:27:51.170Z,6.63
2018-06-09T10:30:19.895Z,5.90
2018-06-09T10:32:48.635Z,5.73
2018-06-09T10:35:17.342Z,6.37
2018-06-09T10:37:46.125Z,5.83
2018-06-09T10:40:14.846Z,6.90
2018-06-09T10:42:43.642Z,6.40
2018-06-09T10:45:12.808Z,5.93
2018-06-09T10:47:41.548Z,7.20
2018-06-09T10:50:10.499Z,6.10
2018-06-09T10:52:39.252Z,6.03
2018-06-09T10:55:08.043Z,6.20
2018-06-09T10:57:36.786Z,7.53
2018-06-09T11:00:05.786Z,6.30
2018-06-09T11:02:34.481Z,5.87
2018-06-09T11:05:03.181Z,6.40
2018-06-09T11:07:31.916Z,5.37
2018-06-09T11:10:00.648Z,6.60
2018-06-09T11:12:29.337Z,6.60
2018-06-09T11:14:58.064Z,6.77
2018-06-09T11:17:26.781Z,6.80
2018-06-09T11:19:55.489Z,5.03
2018-06-09T11:22:24.223Z,5.20
2018-06-09T11:24:52.912Z,5.93
2018-06-09T11:27:21.605Z,5.20
2018-06-09T11:29:50.329Z,4.67
2018-06-09T11:32:19.157Z,6.37
2018-06-09T11:34:47.879Z,6.37
2018-06-09T11:37:16.601Z,5.57
2018-06-09T11:39:45.432Z,4.83
2018-06-09T11:42:14.113Z,4.47
2018-06-09T11:44:42.834Z,4.45
2018-06-09T11:47:11.559Z,3.85
2018-06-09T11:49:40.253Z,4.67
2018-06-09T11:52:08.971Z,4.87
2018-06-09T11:54:37.686Z,5.27
2018-06-09T11:57:06.380Z,4.50
2018-06-09T11:59:35.494Z,4.65
2018-06-09T12:02:04.222Z,4.60
2018-06-09T12:04:34.123Z,5.12
2018-06-09T12:07:02.890Z,5.42
2018-06-09T12:09:31.619Z,5.12
2018-06-09T12:12:00.342Z,5.40
2018-06-09T12:14:29.083Z,4.78
2018-06-09T12:16:58.780Z,4.65
2018-06-09T12:19:27.542Z,4.30
2018-06-09T12:21:56.310Z,5.37
2018-06-09T12:24:25.039Z,4.47
2018-06-09T12:26:53.744Z,4.10
2018-06-09T12:29:22.493Z,4.70
2018-06-09T12:31:51.306Z,5.00
2018-06-09T12:34:20.051Z,5.00
2018-06-09T12:36:48.791Z,5.50
2018-06-09T12:39:17.647Z,5.00
2018-06-09T12:41:46.368Z,6.17
2018-06-09T12:44:15.204Z,5.50
2018-06-09T12:46:43.940Z,6.00
2018-06-09T12:49:12.680Z,5.40
2018-06-09T12:51:41.470Z,5.87
2018-06-09T12:54:10.162Z,6.40
2018-06-09T12:56:38.885Z,5.07
2018-06-09T12:59:07.676Z,5.47
2018-06-09T13:01:36.400Z,5.10
2018-06-09T13:04:05.148Z,4.83
2018-06-09T13:06:34.015Z,5.10
2018-06-09T13:09:02.747Z,5.40
2018-06-09T13:11:31.439Z,4.27
2018-06-09T13:14:00.196Z,4.10
2018-06-09T13:16:28.884Z,4.80
2018-06-09T13:18:57.586Z,4.27
2018-06-09T13:21:26.318Z,4.20
2018-06-09T13:23:55.039Z,5.03
2018-06-09T13:26:23.739Z,4.93
2018-06-09T13:28:52.568Z,4.77
2018-06-09T13:31:21.312Z,4.43
2018-06-09T13:33:50.038Z,5.47
2018-06-09T13:36:18.773Z,5.00
2018-06-09T13:38:47.498Z,4.90
2018-06-09T13:41:16.273Z,4.87
2018-06-09T13:43:44.957Z,4.97
2018-06-09T13:46:13.835Z,4.40
2018-06-09T13:48:42.548Z,5.27
2018-06-09T13:51:11.487Z,5.33
2018-06-09T13:53:40.205Z,5.70
2018-06-09T13:56:09.000Z,6.07
2018-06-09T13:58:37.927Z,4.43
2018-06-09T14:01:06.789Z,5.43
2018-06-09T14:03:35.518Z,5.60
2018-06-09T14:06:04.277Z,6.10
2018-06-09T14:08:33.066Z,5.23
2018-06-09T14:11:01.815Z,4.30
2018-06-09T14:13:30.574Z,4.33
2018-06-09T14:15:59.287Z,5.33
2018-06-09T14:18:28.019Z,5.23
2018-06-09T14:20:56.805Z,5.07
2018-06-09T14:23:25.537Z,5.33
2018-06-09T14:25:54.309Z,5.83
2018-06-09T14:28:23.078Z,4.40
2018-06-09T14:30:51.820Z,5.53
2018-06-09T14:33:20.542Z,5.53
2018-06-09T14:35:49.307Z,5.57
2018-06-09T14:38:18.020Z,5.70
2018-06-09T14:40:46.846Z,5.50
2018-06-09T14:43:15.637Z,5.60
2018-06-09T14:45:44.450Z,4.90
2018-06-09T14:48:13.415Z,5.43
2018-06-09T14:50:42.302Z,5.00
2018-06-09T14:53:11.039Z,4.93
2018-06-09T14:55:39.796Z,5.27
2018-06-09T14:58:09.101Z,3.70
2018-06-09T15:00:37.828Z,4.77
2018-06-09T15:03:06.566Z,6.67
2018-06-09T15:05:35.456Z,4.07
2018-06-09T15:08:04.231Z,5.57
2018-06-09T15:10:32.937Z,5.20
2018-06-09T15:13:02.057Z,4.53
2018-06-09T15:15:30.915Z,3.63
2018-06-09T15:17:59.780Z,4.60
2018-06-09T15:20:28.642Z,4.40
2018-06-09T15:22:57.462Z,4.67
2018-06-09T15:25:26.169Z,5.63
2018-06-09T15:27:54.885Z,5.53
2018-06-09T15:30:23.632Z,6.07
2018-06-09T15:32:53.551Z,6.47
2018-06-09T15:35:25.742Z,4.37
2018-06-09T15:37:58.181Z,4.50
2018-06-09T15:40:27.137Z,4.97
2018-06-09T15:42:56.055Z,7.53
2018-06-09T15:45:25.109Z,7.40
2018-06-09T15:47:53.861Z,6.60
2018-06-09T15:50:22.579Z,5.83
2018-06-09T15:52:51.398Z,5.43
2018-06-09T15:55:20.253Z,4.83
2018-06-09T15:57:49.090Z,4.90
2018-06-09T16:00:17.884Z,10.23
2018-06-09T16:02:46.698Z,4.80
2018-06-09T16:05:15.422Z,5.40
2018-06-09T16:07:44.415Z,8.33
2018-06-09T16:10:13.203Z,6.10
2018-06-09T16:12:41.922Z,4.40
2018-06-09T16:15:10.605Z,7.60
2018-06-09T16:17:43.104Z,8.60
2018-06-09T16:20:11.945Z,5.87
2018-06-09T16:22:40.661Z,5.50
2018-06-09T16:25:09.464Z,6.93
2018-06-09T16:27:38.177Z,8.07
2018-06-09T16:30:06.901Z,6.07
2018-06-09T16:32:35.817Z,9.13
2018-06-09T16:35:04.575Z,9.03
2018-06-09T16:37:33.252Z,5.57
2018-06-09T16:40:01.983Z,7.53
2018-06-09T16:42:30.685Z,8.37
2018-06-09T16:45:05.781Z,6.90
2018-06-09T16:47:34.490Z,7.13
2018-06-09T16:50:03.234Z,9.33
2018-06-09T16:52:32.305Z,6.60
2018-06-09T16:55:01.022Z,6.27
2018-06-09T16:57:29.850Z,4.80
2018-06-09T16:59:58.602Z,6.30
2018-06-09T17:02:27.317Z,5.73
2018-06-09T17:04:56.056Z,5.50
2018-06-09T17:07:24.809Z,5.63
2018-06-09T17:09:53.521Z,5.47
2018-06-09T17:12:22.221Z,5.30
2018-06-09T17:14:51.060Z,5.60
2018-06-09T17:17:19.881Z,4.57
2018-06-09T17:19:48.581Z,6.03
2018-06-09T17:22:17.300Z,5.47
2018-06-09T17:24:45.985Z,5.83
2018-06-09T17:27:14.693Z,5.77
2018-06-09T17:29:43.467Z,5.57
2018-06-09T17:32:12.214Z,5.70
2018-06-09T17:34:40.922Z,5.87
2018-06-09T17:37:09.753Z,5.50
2018-06-09T17:39:38.433Z,6.77
2018-06-09T17:42:07.322Z,7.13
2018-06-09T17:44:36.057Z,7.47
2018-06-09T17:47:04.767Z,6.93
2018-06-09T17:49:33.484Z,6.90
2018-06-09T17:52:02.775Z,8.47
2018-06-09T17:54:31.473Z,7.37
2018-06-09T17:57:04.410Z,8.40
2018-06-09T17:59:38.840Z,7.93
2018-06-09T18:02:13.641Z,7.10
2018-06-09T18:04:47.797Z,7.90
2018-06-09T18:07:22.575Z,8.93
2018-06-09T18:09:55.203Z,8.20
2018-06-09T18:12:27.416Z,7.47
2018-06-09T18:15:00.193Z,8.53
2018-06-09T18:17:32.431Z,9.23
2018-06-09T18:20:04.559Z,8.30
2018-06-09T18:22:37.673Z,8.50
2018-06-09T18:25:10.844Z,8.87
2018-06-09T18:27:44.452Z,9.07
2018-06-09T18:30:17.238Z,9.83
2018-06-09T18:32:50.466Z,10.60
2018-06-09T18:35:24.301Z,10.30
2018-06-09T18:37:58.211Z,9.57
2018-06-09T18:40:31.093Z,9.53
2018-06-09T18:43:05.285Z,8.13
2018-06-09T18:45:38.950Z,7.90
2018-06-09T18:48:13.598Z,8.93
2018-06-09T18:50:42.583Z,9.70
2018-06-09T18:53:11.318Z,9.53
2018-06-09T18:55:40.043Z,9.57
2018-06-09T18:58:08.784Z,11.00
2018-06-09T19:00:37.525Z,9.43
2018-06-09T19:03:06.295Z,10.43
2018-06-09T19:05:35.007Z,8.40
2018-06-09T19:08:03.722Z,10.53
2018-06-09T19:10:32.547Z,10.13
2018-06-09T19:13:01.289Z,10.53
2018-06-09T19:15:31.905Z,12.47
2018-06-09T19:18:00.666Z,10.50
2018-06-09T19:20:29.357Z,11.23
2018-06-09T19:22:58.073Z,10.43
2018-06-09T19:25:26.812Z,11.60
2018-06-09T19:27:55.559Z,12.80
2018-06-09T19:30:24.302Z,10.47
2018-06-09T19:32:53.190Z,10.90
2018-06-09T19:35:21.925Z,11.20
2018-06-09T19:37:50.633Z,12.50
2018-06-09T19:40:19.439Z,10.67
2018-06-09T19:42:48.261Z,11.20
2018-06-09T19:45:17.094Z,10.70
2018-06-09T19:47:52.549Z,11.00
2018-06-09T19:50:21.563Z,10.77
2018-06-09T19:52:51.692Z,12.40
2018-06-09T19:55:20.594Z,11.90
2018-06-09T19:57:49.590Z,10.20
2018-06-09T20:00:18.533Z,9.17
2018-06-09T20:02:47.355Z,11.03
2018-06-09T20:05:16.125Z,12.53
2018-06-09T20:07:44.987Z,10.30
2018-06-09T20:10:13.732Z,9.47
2018-06-09T20:12:42.534Z,10.83
2018-06-09T20:15:11.332Z,8.07
2018-06-09T20:17:40.067Z,9.93
2018-06-09T20:20:09.675Z,8.40
2018-06-09T20:22:38.499Z,9.23
2018-06-09T20:25:07.257Z,8.67
2018-06-09T20:27:43.445Z,8.70
2018-06-09T20:30:12.284Z,9.47
2018-06-09T20:32:41.805Z,12.20
2018-06-09T20:35:11.775Z,8.20
2018-06-09T20:37:40.590Z,10.30
2018-06-09T20:40:09.382Z,9.90
2018-06-09T20:42:38.263Z,10.23
2018-06-09T20:45:07.110Z,10.93
2018-06-09T20:47:35.912Z,10.73
2018-06-09T20:50:04.689Z,9.30
2018-06-09T20:52:33.427Z,10.57
2018-06-09T20:55:02.201Z,10.60
2018-06-09T20:57:31.245Z,11.00
2018-06-09T20:59:59.999Z,11.63
2018-06-09T21:02:28.729Z,10.70
2018-06-09T21:04:57.613Z,11.50
2018-06-09T21:07:26.354Z,11.60
2018-06-09T21:09:55.332Z,11.40
2018-06-09T21:12:24.221Z,10.77
2018-06-09T21:14:53.060Z,12.43
2018-06-09T21:17:21.761Z,12.30
2018-06-09T21:19:50.510Z,11.73
2018-06-09T21:22:19.240Z,12.20
2018-06-09T21:24:47.951Z,11.40
2018-06-09T21:27:21.793Z,11.07
2018-06-09T21:29:55.558Z,11.90
2018-06-09T21:32:33.874Z,11.60
2018-06-09T21:35:18.803Z,11.60
2018-06-09T21:37:48.461Z,13.03
2018-06-09T21:40:22.458Z,10.30
2018-06-09T21:42:56.297Z,12.70
2018-06-09T21:45:29.094Z,12.27
2018-06-09T21:47:57.885Z,12.90
2018-06-09T21:50:26.586Z,13.10
2018-06-09T21:52:55.281Z,12.07
2018-06-09T21:55:24.174Z,12.80
2018-06-09T21:57:52.989Z,11.27
2018-06-09T22:00:22.184Z,13.20
2018-06-09T22:02:50.986Z,12.43
2018-06-09T22:05:19.723Z,12.37
2018-06-09T22:07:48.421Z,12.43
2018-06-09T22:10:17.231Z,12.57
2018-06-09T22:12:46.044Z,12.03
2018-06-09T22:15:14.825Z,12.30
2018-06-09T22:17:43.579Z,12.00
2018-06-09T22:20:12.298Z,13.40
2018-06-09T22:22:41.043Z,12.37
2018-06-09T22:25:09.936Z,11.57
2018-06-09T22:27:38.629Z,11.17
2018-06-09T22:30:07.410Z,10.83
2018-06-09T22:32:36.177Z,12.03
2018-06-09T22:35:04.974Z,9.90
2018-06-09T22:37:33.681Z,10.10
2018-06-09T22:40:02.437Z,8.20
2018-06-09T22:42:31.143Z,9.03
2018-06-09T22:44:59.908Z,8.33
2018-06-09T22:47:28.894Z,9.60
2018-06-09T22:49:57.596Z,8.20
2018-06-09T22:52:26.382Z,7.23
2018-06-09T22:54:55.113Z,8.50
2018-06-09T22:57:23.846Z,9.30
2018-06-09T22:59:52.561Z,8.47
2018-06-09T23:02:21.383Z,8.33
2018-06-09T23:04:50.163Z,8.63
2018-06-09T23:07:18.863Z,7.73
2018-06-09T23:09:47.585Z,9.77
2018-06-09T23:12:16.478Z,8.70
2018-06-09T23:14:45.196Z,10.17
2018-06-09T23:17:13.938Z,9.40
2018-06-09T23:19:42.716Z,8.87
2018-06-09T23:22:11.422Z,10.20
2018-06-09T23:24:40.150Z,9.70
2018-06-09T23:27:08.889Z,8.93
2018-06-09T23:29:37.685Z,8.80
2018-06-09T23:32:06.430Z,8.60
2018-06-09T23:34:35.140Z,9.20
2018-06-09T23:37:03.870Z,8.87
2018-06-09T23:39:32.602Z,7.63
2018-06-09T23:42:01.343Z,6.63
2018-06-09T23:44:30.077Z,7.63
2018-06-09T23:46:58.865Z,8.23
2018-06-09T23:49:27.578Z,7.27
2018-06-09T23:51:56.288Z,6.77
2018-06-09T23:54:25.203Z,6.10
2018-06-09T23:56:53.919Z,7.93
2018-06-09T23:59:22.770Z,7.40
